<?xml version="1.0" encoding="UTF-8" standalone="no" ?>
<gpx xmlns="http://www.topografix.com/GPX/1/1" xmlns:xsi="http://www.w3.org/2001/XMLSchema-instance" xsi:schemaLocation="http://www.topografix.com/GPX/1/1 http://www.topografix.com/GPX/1/1/gpx.xsd" version="1.1" creator="VisuGPX - https://www.visugpx.com">
  <metadata>
    <name>Single-de-Bellecombe-28-900</name>
    <desc><![CDATA[Parcours VTT au départ d'Autrans - 28 km - D  : 900 m]]></desc>
  </metadata>
  <trk>
    <name><![CDATA[Single-Bellecombe-28-900]]></name>
    <trkseg>
      <trkpt lat="45.17497" lon="5.54325">
        <ele>1044</ele>
        <time>2007-05-21T06:00:00Z</time>
      </trkpt>
      <trkpt lat="45.17503" lon="5.54321">
        <ele>1043</ele>
        <time>2007-05-21T06:00:03Z</time>
      </trkpt>
      <trkpt lat="45.17468" lon="5.54345">
        <ele>1044</ele>
        <time>2007-05-21T06:00:18Z</time>
      </trkpt>
      <trkpt lat="45.17452" lon="5.54343">
        <ele>1044</ele>
        <time>2007-05-21T06:00:24Z</time>
      </trkpt>
      <trkpt lat="45.17444" lon="5.54328">
        <ele>1045</ele>
        <time>2007-05-21T06:00:30Z</time>
      </trkpt>
      <trkpt lat="45.17455" lon="5.54298">
        <ele>1045</ele>
        <time>2007-05-21T06:00:39Z</time>
      </trkpt>
      <trkpt lat="45.17469" lon="5.543">
        <ele>1045</ele>
        <time>2007-05-21T06:00:45Z</time>
      </trkpt>
      <trkpt lat="45.1746" lon="5.5429">
        <ele>1045</ele>
        <time>2007-05-21T06:00:49Z</time>
      </trkpt>
      <trkpt lat="45.1748" lon="5.54252">
        <ele>1046</ele>
        <time>2007-05-21T06:01:02Z</time>
      </trkpt>
      <trkpt lat="45.17532" lon="5.5428">
        <ele>1047</ele>
        <time>2007-05-21T06:01:25Z</time>
      </trkpt>
      <trkpt lat="45.17551" lon="5.54334">
        <ele>1046</ele>
        <time>2007-05-21T06:01:42Z</time>
      </trkpt>
      <trkpt lat="45.17625" lon="5.54461">
        <ele>1047</ele>
        <time>2007-05-21T06:02:28Z</time>
      </trkpt>
      <trkpt lat="45.17611" lon="5.5448">
        <ele>1047</ele>
        <time>2007-05-21T06:02:36Z</time>
      </trkpt>
      <trkpt lat="45.17713" lon="5.54278">
        <ele>1052</ele>
        <time>2007-05-21T06:03:46Z</time>
      </trkpt>
      <trkpt lat="45.17727" lon="5.54257">
        <ele>1053</ele>
        <time>2007-05-21T06:03:55Z</time>
      </trkpt>
      <trkpt lat="45.17968" lon="5.54387">
        <ele>1058</ele>
        <time>2007-05-21T06:05:38Z</time>
      </trkpt>
      <trkpt lat="45.18061" lon="5.54416">
        <ele>1062</ele>
        <time>2007-05-21T06:06:16Z</time>
      </trkpt>
      <trkpt lat="45.18155" lon="5.54459">
        <ele>1067</ele>
        <time>2007-05-21T06:06:55Z</time>
      </trkpt>
      <trkpt lat="45.18203" lon="5.54466">
        <ele>1069</ele>
        <time>2007-05-21T06:07:15Z</time>
      </trkpt>
      <trkpt lat="45.18221" lon="5.54455">
        <ele>1070</ele>
        <time>2007-05-21T06:07:23Z</time>
      </trkpt>
      <trkpt lat="45.18276" lon="5.5445">
        <ele>1073</ele>
        <time>2007-05-21T06:07:45Z</time>
      </trkpt>
      <trkpt lat="45.18296" lon="5.5451">
        <ele>1073</ele>
        <time>2007-05-21T06:08:04Z</time>
      </trkpt>
      <trkpt lat="45.18308" lon="5.54618">
        <ele>1073</ele>
        <time>2007-05-21T06:08:35Z</time>
      </trkpt>
      <trkpt lat="45.18293" lon="5.54661">
        <ele>1074</ele>
        <time>2007-05-21T06:08:48Z</time>
      </trkpt>
      <trkpt lat="45.18235" lon="5.54762">
        <ele>1071</ele>
        <time>2007-05-21T06:09:25Z</time>
      </trkpt>
      <trkpt lat="45.18239" lon="5.54778">
        <ele>1071</ele>
        <time>2007-05-21T06:09:30Z</time>
      </trkpt>
      <trkpt lat="45.18265" lon="5.54807">
        <ele>1072</ele>
        <time>2007-05-21T06:09:43Z</time>
      </trkpt>
      <trkpt lat="45.18265" lon="5.54827">
        <ele>1073</ele>
        <time>2007-05-21T06:09:49Z</time>
      </trkpt>
      <trkpt lat="45.18309" lon="5.54837">
        <ele>1074</ele>
        <time>2007-05-21T06:10:06Z</time>
      </trkpt>
      <trkpt lat="45.18332" lon="5.54875">
        <ele>1078</ele>
        <time>2007-05-21T06:10:20Z</time>
      </trkpt>
      <trkpt lat="45.1841" lon="5.54903">
        <ele>1091</ele>
        <time>2007-05-21T06:10:53Z</time>
      </trkpt>
      <trkpt lat="45.18457" lon="5.54984">
        <ele>1102</ele>
        <time>2007-05-21T06:11:23Z</time>
      </trkpt>
      <trkpt lat="45.18447" lon="5.54995">
        <ele>1106</ele>
        <time>2007-05-21T06:11:28Z</time>
      </trkpt>
      <trkpt lat="45.18437" lon="5.55068">
        <ele>1114</ele>
        <time>2007-05-21T06:11:49Z</time>
      </trkpt>
      <trkpt lat="45.18459" lon="5.55114">
        <ele>1121</ele>
        <time>2007-05-21T06:12:04Z</time>
      </trkpt>
      <trkpt lat="45.18495" lon="5.55125">
        <ele>1123</ele>
        <time>2007-05-21T06:12:19Z</time>
      </trkpt>
      <trkpt lat="45.18531" lon="5.55151">
        <ele>1125</ele>
        <time>2007-05-21T06:12:35Z</time>
      </trkpt>
      <trkpt lat="45.18552" lon="5.55146">
        <ele>1124</ele>
        <time>2007-05-21T06:12:44Z</time>
      </trkpt>
      <trkpt lat="45.18558" lon="5.55165">
        <ele>1127</ele>
        <time>2007-05-21T06:12:50Z</time>
      </trkpt>
      <trkpt lat="45.18539" lon="5.55169">
        <ele>1129</ele>
        <time>2007-05-21T06:12:58Z</time>
      </trkpt>
      <trkpt lat="45.18551" lon="5.55279">
        <ele>1138</ele>
        <time>2007-05-21T06:13:29Z</time>
      </trkpt>
      <trkpt lat="45.18576" lon="5.55327">
        <ele>1143</ele>
        <time>2007-05-21T06:13:46Z</time>
      </trkpt>
      <trkpt lat="45.18608" lon="5.55342">
        <ele>1145</ele>
        <time>2007-05-21T06:14:00Z</time>
      </trkpt>
      <trkpt lat="45.18639" lon="5.5539">
        <ele>1148</ele>
        <time>2007-05-21T06:14:18Z</time>
      </trkpt>
      <trkpt lat="45.18636" lon="5.55436">
        <ele>1150</ele>
        <time>2007-05-21T06:14:31Z</time>
      </trkpt>
      <trkpt lat="45.18601" lon="5.55473">
        <ele>1146</ele>
        <time>2007-05-21T06:14:49Z</time>
      </trkpt>
      <trkpt lat="45.18599" lon="5.55485">
        <ele>1144</ele>
        <time>2007-05-21T06:14:52Z</time>
      </trkpt>
      <trkpt lat="45.18637" lon="5.55503">
        <ele>1152</ele>
        <time>2007-05-21T06:15:08Z</time>
      </trkpt>
      <trkpt lat="45.18779" lon="5.5563">
        <ele>1167</ele>
        <time>2007-05-21T06:16:15Z</time>
      </trkpt>
      <trkpt lat="45.18811" lon="5.55674">
        <ele>1171</ele>
        <time>2007-05-21T06:16:33Z</time>
      </trkpt>
      <trkpt lat="45.18842" lon="5.55738">
        <ele>1173</ele>
        <time>2007-05-21T06:16:56Z</time>
      </trkpt>
      <trkpt lat="45.18905" lon="5.55825">
        <ele>1178</ele>
        <time>2007-05-21T06:17:30Z</time>
      </trkpt>
      <trkpt lat="45.19082" lon="5.55868">
        <ele>1188</ele>
        <time>2007-05-21T06:18:42Z</time>
      </trkpt>
      <trkpt lat="45.19151" lon="5.55931">
        <ele>1196</ele>
        <time>2007-05-21T06:19:15Z</time>
      </trkpt>
      <trkpt lat="45.19186" lon="5.55944">
        <ele>1201</ele>
        <time>2007-05-21T06:19:30Z</time>
      </trkpt>
      <trkpt lat="45.19245" lon="5.56005">
        <ele>1212</ele>
        <time>2007-05-21T06:19:59Z</time>
      </trkpt>
      <trkpt lat="45.19259" lon="5.56007">
        <ele>1213</ele>
        <time>2007-05-21T06:20:05Z</time>
      </trkpt>
      <trkpt lat="45.19273" lon="5.56027">
        <ele>1216</ele>
        <time>2007-05-21T06:20:13Z</time>
      </trkpt>
      <trkpt lat="45.19276" lon="5.56021">
        <ele>1216</ele>
        <time>2007-05-21T06:20:15Z</time>
      </trkpt>
      <trkpt lat="45.19237" lon="5.56085">
        <ele>1219</ele>
        <time>2007-05-21T06:20:39Z</time>
      </trkpt>
      <trkpt lat="45.19251" lon="5.56108">
        <ele>1221</ele>
        <time>2007-05-21T06:20:47Z</time>
      </trkpt>
      <trkpt lat="45.19344" lon="5.56174">
        <ele>1227</ele>
        <time>2007-05-21T06:21:29Z</time>
      </trkpt>
      <trkpt lat="45.19437" lon="5.56218">
        <ele>1234</ele>
        <time>2007-05-21T06:22:08Z</time>
      </trkpt>
      <trkpt lat="45.19463" lon="5.56215">
        <ele>1235</ele>
        <time>2007-05-21T06:22:19Z</time>
      </trkpt>
      <trkpt lat="45.19529" lon="5.56231">
        <ele>1244</ele>
        <time>2007-05-21T06:22:45Z</time>
      </trkpt>
      <trkpt lat="45.19561" lon="5.56264">
        <ele>1247</ele>
        <time>2007-05-21T06:23:01Z</time>
      </trkpt>
      <trkpt lat="45.19593" lon="5.5628">
        <ele>1253</ele>
        <time>2007-05-21T06:23:15Z</time>
      </trkpt>
      <trkpt lat="45.19645" lon="5.5629">
        <ele>1256</ele>
        <time>2007-05-21T06:23:36Z</time>
      </trkpt>
      <trkpt lat="45.19693" lon="5.56279">
        <ele>1265</ele>
        <time>2007-05-21T06:23:56Z</time>
      </trkpt>
      <trkpt lat="45.19755" lon="5.56228">
        <ele>1271</ele>
        <time>2007-05-21T06:24:24Z</time>
      </trkpt>
      <trkpt lat="45.19778" lon="5.56222">
        <ele>1272</ele>
        <time>2007-05-21T06:24:34Z</time>
      </trkpt>
      <trkpt lat="45.19854" lon="5.56164">
        <ele>1269</ele>
        <time>2007-05-21T06:25:08Z</time>
      </trkpt>
      <trkpt lat="45.19869" lon="5.56143">
        <ele>1269</ele>
        <time>2007-05-21T06:25:17Z</time>
      </trkpt>
      <trkpt lat="45.19954" lon="5.5609">
        <ele>1267</ele>
        <time>2007-05-21T06:25:54Z</time>
      </trkpt>
      <trkpt lat="45.20043" lon="5.56087">
        <ele>1272</ele>
        <time>2007-05-21T06:26:30Z</time>
      </trkpt>
      <trkpt lat="45.20054" lon="5.56074">
        <ele>1271</ele>
        <time>2007-05-21T06:26:35Z</time>
      </trkpt>
      <trkpt lat="45.20058" lon="5.56082">
        <ele>1274</ele>
        <time>2007-05-21T06:26:38Z</time>
      </trkpt>
      <trkpt lat="45.20079" lon="5.56065">
        <ele>1272</ele>
        <time>2007-05-21T06:26:48Z</time>
      </trkpt>
      <trkpt lat="45.20218" lon="5.56051">
        <ele>1273</ele>
        <time>2007-05-21T06:27:44Z</time>
      </trkpt>
      <trkpt lat="45.2025" lon="5.5606">
        <ele>1273</ele>
        <time>2007-05-21T06:27:57Z</time>
      </trkpt>
      <trkpt lat="45.20326" lon="5.56034">
        <ele>1276</ele>
        <time>2007-05-21T06:28:28Z</time>
      </trkpt>
      <trkpt lat="45.20506" lon="5.55998">
        <ele>1276</ele>
        <time>2007-05-21T06:29:41Z</time>
      </trkpt>
      <trkpt lat="45.20546" lon="5.5597">
        <ele>1274</ele>
        <time>2007-05-21T06:29:59Z</time>
      </trkpt>
      <trkpt lat="45.20613" lon="5.55949">
        <ele>1276</ele>
        <time>2007-05-21T06:30:26Z</time>
      </trkpt>
      <trkpt lat="45.20678" lon="5.55874">
        <ele>1278</ele>
        <time>2007-05-21T06:31:00Z</time>
      </trkpt>
      <trkpt lat="45.20714" lon="5.55856">
        <ele>1281</ele>
        <time>2007-05-21T06:31:16Z</time>
      </trkpt>
      <trkpt lat="45.20775" lon="5.55869">
        <ele>1281</ele>
        <time>2007-05-21T06:31:40Z</time>
      </trkpt>
      <trkpt lat="45.20815" lon="5.55863">
        <ele>1282</ele>
        <time>2007-05-21T06:31:56Z</time>
      </trkpt>
      <trkpt lat="45.20895" lon="5.55875">
        <ele>1287</ele>
        <time>2007-05-21T06:32:28Z</time>
      </trkpt>
      <trkpt lat="45.20923" lon="5.55891">
        <ele>1287</ele>
        <time>2007-05-21T06:32:41Z</time>
      </trkpt>
      <trkpt lat="45.20952" lon="5.55925">
        <ele>1292</ele>
        <time>2007-05-21T06:32:55Z</time>
      </trkpt>
      <trkpt lat="45.2098" lon="5.55943">
        <ele>1296</ele>
        <time>2007-05-21T06:33:08Z</time>
      </trkpt>
      <trkpt lat="45.21017" lon="5.55942">
        <ele>1297</ele>
        <time>2007-05-21T06:33:23Z</time>
      </trkpt>
      <trkpt lat="45.21065" lon="5.55927">
        <ele>1293</ele>
        <time>2007-05-21T06:33:42Z</time>
      </trkpt>
      <trkpt lat="45.21114" lon="5.55934">
        <ele>1294</ele>
        <time>2007-05-21T06:34:02Z</time>
      </trkpt>
      <trkpt lat="45.2122" lon="5.55982">
        <ele>1296</ele>
        <time>2007-05-21T06:34:47Z</time>
      </trkpt>
      <trkpt lat="45.21263" lon="5.56036">
        <ele>1301</ele>
        <time>2007-05-21T06:35:10Z</time>
      </trkpt>
      <trkpt lat="45.21305" lon="5.5606">
        <ele>1302</ele>
        <time>2007-05-21T06:35:28Z</time>
      </trkpt>
      <trkpt lat="45.21361" lon="5.56054">
        <ele>1301</ele>
        <time>2007-05-21T06:35:50Z</time>
      </trkpt>
      <trkpt lat="45.21398" lon="5.56063">
        <ele>1303</ele>
        <time>2007-05-21T06:36:05Z</time>
      </trkpt>
      <trkpt lat="45.21399" lon="5.56052">
        <ele>1304</ele>
        <time>2007-05-21T06:36:08Z</time>
      </trkpt>
      <trkpt lat="45.21406" lon="5.56052">
        <ele>1301</ele>
        <time>2007-05-21T06:36:11Z</time>
      </trkpt>
      <trkpt lat="45.21405" lon="5.56029">
        <ele>1299</ele>
        <time>2007-05-21T06:36:18Z</time>
      </trkpt>
      <trkpt lat="45.2138" lon="5.56021">
        <ele>1298</ele>
        <time>2007-05-21T06:36:28Z</time>
      </trkpt>
      <trkpt lat="45.2138" lon="5.56012">
        <ele>1298</ele>
        <time>2007-05-21T06:36:31Z</time>
      </trkpt>
      <trkpt lat="45.21632" lon="5.55996">
        <ele>1301</ele>
        <time>2007-05-21T06:38:12Z</time>
      </trkpt>
      <trkpt lat="45.21825" lon="5.56035">
        <ele>1297</ele>
        <time>2007-05-21T06:39:30Z</time>
      </trkpt>
      <trkpt lat="45.21853" lon="5.56107">
        <ele>1297</ele>
        <time>2007-05-21T06:39:53Z</time>
      </trkpt>
      <trkpt lat="45.21957" lon="5.5628">
        <ele>1302</ele>
        <time>2007-05-21T06:40:57Z</time>
      </trkpt>
      <trkpt lat="45.21995" lon="5.5636">
        <ele>1306</ele>
        <time>2007-05-21T06:41:25Z</time>
      </trkpt>
      <trkpt lat="45.21999" lon="5.56383">
        <ele>1307</ele>
        <time>2007-05-21T06:41:31Z</time>
      </trkpt>
      <trkpt lat="45.22039" lon="5.56446">
        <ele>1311</ele>
        <time>2007-05-21T06:41:55Z</time>
      </trkpt>
      <trkpt lat="45.22074" lon="5.56533">
        <ele>1317</ele>
        <time>2007-05-21T06:42:24Z</time>
      </trkpt>
      <trkpt lat="45.22084" lon="5.56618">
        <ele>1318</ele>
        <time>2007-05-21T06:42:48Z</time>
      </trkpt>
      <trkpt lat="45.22079" lon="5.56656">
        <ele>1320</ele>
        <time>2007-05-21T06:42:59Z</time>
      </trkpt>
      <trkpt lat="45.22042" lon="5.5672">
        <ele>1325</ele>
        <time>2007-05-21T06:43:22Z</time>
      </trkpt>
      <trkpt lat="45.22034" lon="5.56765">
        <ele>1330</ele>
        <time>2007-05-21T06:43:35Z</time>
      </trkpt>
      <trkpt lat="45.21999" lon="5.56857">
        <ele>1336</ele>
        <time>2007-05-21T06:44:05Z</time>
      </trkpt>
      <trkpt lat="45.21973" lon="5.56885">
        <ele>1338</ele>
        <time>2007-05-21T06:44:18Z</time>
      </trkpt>
      <trkpt lat="45.21927" lon="5.56893">
        <ele>1341</ele>
        <time>2007-05-21T06:44:37Z</time>
      </trkpt>
      <trkpt lat="45.21914" lon="5.56927">
        <ele>1344</ele>
        <time>2007-05-21T06:44:47Z</time>
      </trkpt>
      <trkpt lat="45.21926" lon="5.56947">
        <ele>1347</ele>
        <time>2007-05-21T06:44:55Z</time>
      </trkpt>
      <trkpt lat="45.21969" lon="5.56945">
        <ele>1350</ele>
        <time>2007-05-21T06:45:12Z</time>
      </trkpt>
      <trkpt lat="45.21996" lon="5.56954">
        <ele>1352</ele>
        <time>2007-05-21T06:45:23Z</time>
      </trkpt>
      <trkpt lat="45.22007" lon="5.56976">
        <ele>1353</ele>
        <time>2007-05-21T06:45:31Z</time>
      </trkpt>
      <trkpt lat="45.22001" lon="5.57042">
        <ele>1358</ele>
        <time>2007-05-21T06:45:50Z</time>
      </trkpt>
      <trkpt lat="45.2202" lon="5.57099">
        <ele>1358</ele>
        <time>2007-05-21T06:46:07Z</time>
      </trkpt>
      <trkpt lat="45.22003" lon="5.57119">
        <ele>1359</ele>
        <time>2007-05-21T06:46:16Z</time>
      </trkpt>
      <trkpt lat="45.21998" lon="5.5714">
        <ele>1359</ele>
        <time>2007-05-21T06:46:22Z</time>
      </trkpt>
      <trkpt lat="45.2203" lon="5.57225">
        <ele>1366</ele>
        <time>2007-05-21T06:46:49Z</time>
      </trkpt>
      <trkpt lat="45.22044" lon="5.57241">
        <ele>1369</ele>
        <time>2007-05-21T06:46:57Z</time>
      </trkpt>
      <trkpt lat="45.22063" lon="5.57237">
        <ele>1372</ele>
        <time>2007-05-21T06:47:04Z</time>
      </trkpt>
      <trkpt lat="45.2209" lon="5.57199">
        <ele>1374</ele>
        <time>2007-05-21T06:47:20Z</time>
      </trkpt>
      <trkpt lat="45.22111" lon="5.57209">
        <ele>1376</ele>
        <time>2007-05-21T06:47:29Z</time>
      </trkpt>
      <trkpt lat="45.22156" lon="5.5728">
        <ele>1382</ele>
        <time>2007-05-21T06:47:55Z</time>
      </trkpt>
      <trkpt lat="45.22186" lon="5.57297">
        <ele>1386</ele>
        <time>2007-05-21T06:48:08Z</time>
      </trkpt>
      <trkpt lat="45.22259" lon="5.57293">
        <ele>1387</ele>
        <time>2007-05-21T06:48:37Z</time>
      </trkpt>
      <trkpt lat="45.2236" lon="5.57219">
        <ele>1387</ele>
        <time>2007-05-21T06:49:23Z</time>
      </trkpt>
      <trkpt lat="45.2239" lon="5.57234">
        <ele>1390</ele>
        <time>2007-05-21T06:49:36Z</time>
      </trkpt>
      <trkpt lat="45.22411" lon="5.57224">
        <ele>1393</ele>
        <time>2007-05-21T06:49:45Z</time>
      </trkpt>
      <trkpt lat="45.22438" lon="5.5718">
        <ele>1398</ele>
        <time>2007-05-21T06:50:01Z</time>
      </trkpt>
      <trkpt lat="45.22466" lon="5.57158">
        <ele>1402</ele>
        <time>2007-05-21T06:50:14Z</time>
      </trkpt>
      <trkpt lat="45.22539" lon="5.57156">
        <ele>1409</ele>
        <time>2007-05-21T06:50:43Z</time>
      </trkpt>
      <trkpt lat="45.22575" lon="5.5718">
        <ele>1411</ele>
        <time>2007-05-21T06:50:59Z</time>
      </trkpt>
      <trkpt lat="45.22605" lon="5.57282">
        <ele>1420</ele>
        <time>2007-05-21T06:51:30Z</time>
      </trkpt>
      <trkpt lat="45.22678" lon="5.57347">
        <ele>1424</ele>
        <time>2007-05-21T06:52:05Z</time>
      </trkpt>
      <trkpt lat="45.22778" lon="5.57402">
        <ele>1417</ele>
        <time>2007-05-21T06:52:48Z</time>
      </trkpt>
      <trkpt lat="45.22858" lon="5.5743">
        <ele>1420</ele>
        <time>2007-05-21T06:53:21Z</time>
      </trkpt>
      <trkpt lat="45.229" lon="5.57433">
        <ele>1424</ele>
        <time>2007-05-21T06:53:38Z</time>
      </trkpt>
      <trkpt lat="45.22947" lon="5.57419">
        <ele>1427</ele>
        <time>2007-05-21T06:53:57Z</time>
      </trkpt>
      <trkpt lat="45.23" lon="5.5743">
        <ele>1434</ele>
        <time>2007-05-21T06:54:19Z</time>
      </trkpt>
      <trkpt lat="45.23044" lon="5.57421">
        <ele>1440</ele>
        <time>2007-05-21T06:54:36Z</time>
      </trkpt>
      <trkpt lat="45.23067" lon="5.57435">
        <ele>1442</ele>
        <time>2007-05-21T06:54:46Z</time>
      </trkpt>
      <trkpt lat="45.23093" lon="5.5748">
        <ele>1445</ele>
        <time>2007-05-21T06:55:03Z</time>
      </trkpt>
      <trkpt lat="45.23098" lon="5.57519">
        <ele>1447</ele>
        <time>2007-05-21T06:55:14Z</time>
      </trkpt>
      <trkpt lat="45.23093" lon="5.57595">
        <ele>1450</ele>
        <time>2007-05-21T06:55:36Z</time>
      </trkpt>
      <trkpt lat="45.23101" lon="5.57625">
        <ele>1451</ele>
        <time>2007-05-21T06:55:45Z</time>
      </trkpt>
      <trkpt lat="45.23126" lon="5.57632">
        <ele>1456</ele>
        <time>2007-05-21T06:55:55Z</time>
      </trkpt>
      <trkpt lat="45.23157" lon="5.57552">
        <ele>1458</ele>
        <time>2007-05-21T06:56:20Z</time>
      </trkpt>
      <trkpt lat="45.23235" lon="5.57475">
        <ele>1466</ele>
        <time>2007-05-21T06:56:59Z</time>
      </trkpt>
      <trkpt lat="45.23267" lon="5.57482">
        <ele>1467</ele>
        <time>2007-05-21T06:57:12Z</time>
      </trkpt>
      <trkpt lat="45.23381" lon="5.57557">
        <ele>1466</ele>
        <time>2007-05-21T06:58:02Z</time>
      </trkpt>
      <trkpt lat="45.23427" lon="5.57562">
        <ele>1475</ele>
        <time>2007-05-21T06:58:20Z</time>
      </trkpt>
      <trkpt lat="45.23455" lon="5.57583">
        <ele>1480</ele>
        <time>2007-05-21T06:58:33Z</time>
      </trkpt>
      <trkpt lat="45.23486" lon="5.57579">
        <ele>1485</ele>
        <time>2007-05-21T06:58:45Z</time>
      </trkpt>
      <trkpt lat="45.23503" lon="5.57589">
        <ele>1491</ele>
        <time>2007-05-21T06:58:53Z</time>
      </trkpt>
      <trkpt lat="45.23529" lon="5.57623">
        <ele>1496</ele>
        <time>2007-05-21T06:59:07Z</time>
      </trkpt>
      <trkpt lat="45.23534" lon="5.57621">
        <ele>1497</ele>
        <time>2007-05-21T06:59:09Z</time>
      </trkpt>
      <trkpt lat="45.23543" lon="5.57645">
        <ele>1498</ele>
        <time>2007-05-21T06:59:17Z</time>
      </trkpt>
      <trkpt lat="45.23626" lon="5.57708">
        <ele>1509</ele>
        <time>2007-05-21T06:59:55Z</time>
      </trkpt>
      <trkpt lat="45.23645" lon="5.57711">
        <ele>1508</ele>
        <time>2007-05-21T07:00:03Z</time>
      </trkpt>
      <trkpt lat="45.2366" lon="5.57699">
        <ele>1511</ele>
        <time>2007-05-21T07:00:09Z</time>
      </trkpt>
      <trkpt lat="45.23654" lon="5.57695">
        <ele>1512</ele>
        <time>2007-05-21T07:00:12Z</time>
      </trkpt>
      <trkpt lat="45.23695" lon="5.57695">
        <ele>1511</ele>
        <time>2007-05-21T07:00:28Z</time>
      </trkpt>
      <trkpt lat="45.23768" lon="5.5773">
        <ele>1519</ele>
        <time>2007-05-21T07:00:59Z</time>
      </trkpt>
      <trkpt lat="45.23788" lon="5.57727">
        <ele>1520</ele>
        <time>2007-05-21T07:01:07Z</time>
      </trkpt>
      <trkpt lat="45.23849" lon="5.57755">
        <ele>1520</ele>
        <time>2007-05-21T07:01:33Z</time>
      </trkpt>
      <trkpt lat="45.23885" lon="5.57758">
        <ele>1518</ele>
        <time>2007-05-21T07:01:47Z</time>
      </trkpt>
      <trkpt lat="45.23882" lon="5.57764">
        <ele>1518</ele>
        <time>2007-05-21T07:01:49Z</time>
      </trkpt>
      <trkpt lat="45.23887" lon="5.57768">
        <ele>1518</ele>
        <time>2007-05-21T07:01:52Z</time>
      </trkpt>
      <trkpt lat="45.23884" lon="5.57763">
        <ele>1518</ele>
        <time>2007-05-21T07:01:54Z</time>
      </trkpt>
      <trkpt lat="45.23899" lon="5.57779">
        <ele>1518</ele>
        <time>2007-05-21T07:02:01Z</time>
      </trkpt>
      <trkpt lat="45.23911" lon="5.57813">
        <ele>1512</ele>
        <time>2007-05-21T07:02:12Z</time>
      </trkpt>
      <trkpt lat="45.23934" lon="5.57815">
        <ele>1512</ele>
        <time>2007-05-21T07:02:21Z</time>
      </trkpt>
      <trkpt lat="45.23969" lon="5.57795">
        <ele>1512</ele>
        <time>2007-05-21T07:02:36Z</time>
      </trkpt>
      <trkpt lat="45.24011" lon="5.57752">
        <ele>1518</ele>
        <time>2007-05-21T07:02:57Z</time>
      </trkpt>
      <trkpt lat="45.24112" lon="5.57828">
        <ele>1511</ele>
        <time>2007-05-21T07:03:43Z</time>
      </trkpt>
      <trkpt lat="45.24186" lon="5.57908">
        <ele>1509</ele>
        <time>2007-05-21T07:04:20Z</time>
      </trkpt>
      <trkpt lat="45.24192" lon="5.57935">
        <ele>1510</ele>
        <time>2007-05-21T07:04:28Z</time>
      </trkpt>
      <trkpt lat="45.24166" lon="5.58068">
        <ele>1513</ele>
        <time>2007-05-21T07:05:07Z</time>
      </trkpt>
      <trkpt lat="45.24153" lon="5.58094">
        <ele>1512</ele>
        <time>2007-05-21T07:05:16Z</time>
      </trkpt>
      <trkpt lat="45.24124" lon="5.58202">
        <ele>1514</ele>
        <time>2007-05-21T07:05:49Z</time>
      </trkpt>
      <trkpt lat="45.24131" lon="5.58246">
        <ele>1517</ele>
        <time>2007-05-21T07:06:01Z</time>
      </trkpt>
      <trkpt lat="45.24131" lon="5.58328">
        <ele>1515</ele>
        <time>2007-05-21T07:06:25Z</time>
      </trkpt>
      <trkpt lat="45.24146" lon="5.58378">
        <ele>1511</ele>
        <time>2007-05-21T07:06:40Z</time>
      </trkpt>
      <trkpt lat="45.24147" lon="5.58411">
        <ele>1508</ele>
        <time>2007-05-21T07:06:49Z</time>
      </trkpt>
      <trkpt lat="45.24137" lon="5.58454">
        <ele>1506</ele>
        <time>2007-05-21T07:07:02Z</time>
      </trkpt>
      <trkpt lat="45.24117" lon="5.58499">
        <ele>1506</ele>
        <time>2007-05-21T07:07:17Z</time>
      </trkpt>
      <trkpt lat="45.24079" lon="5.58514">
        <ele>1502</ele>
        <time>2007-05-21T07:07:33Z</time>
      </trkpt>
      <trkpt lat="45.24018" lon="5.5851">
        <ele>1503</ele>
        <time>2007-05-21T07:07:58Z</time>
      </trkpt>
      <trkpt lat="45.23987" lon="5.58525">
        <ele>1503</ele>
        <time>2007-05-21T07:08:11Z</time>
      </trkpt>
      <trkpt lat="45.23879" lon="5.58615">
        <ele>1506</ele>
        <time>2007-05-21T07:09:01Z</time>
      </trkpt>
      <trkpt lat="45.23832" lon="5.58623">
        <ele>1509</ele>
        <time>2007-05-21T07:09:20Z</time>
      </trkpt>
      <trkpt lat="45.23776" lon="5.5869">
        <ele>1516</ele>
        <time>2007-05-21T07:09:49Z</time>
      </trkpt>
      <trkpt lat="45.23763" lon="5.58732">
        <ele>1524</ele>
        <time>2007-05-21T07:10:02Z</time>
      </trkpt>
      <trkpt lat="45.23758" lon="5.58809">
        <ele>1529</ele>
        <time>2007-05-21T07:10:24Z</time>
      </trkpt>
      <trkpt lat="45.2377" lon="5.58856">
        <ele>1528</ele>
        <time>2007-05-21T07:10:38Z</time>
      </trkpt>
      <trkpt lat="45.23755" lon="5.58907">
        <ele>1532</ele>
        <time>2007-05-21T07:10:54Z</time>
      </trkpt>
      <trkpt lat="45.23659" lon="5.59006">
        <ele>1535</ele>
        <time>2007-05-21T07:11:41Z</time>
      </trkpt>
      <trkpt lat="45.23636" lon="5.5904">
        <ele>1537</ele>
        <time>2007-05-21T07:11:55Z</time>
      </trkpt>
      <trkpt lat="45.2361" lon="5.59053">
        <ele>1535</ele>
        <time>2007-05-21T07:12:06Z</time>
      </trkpt>
      <trkpt lat="45.2358" lon="5.59086">
        <ele>1538</ele>
        <time>2007-05-21T07:12:21Z</time>
      </trkpt>
      <trkpt lat="45.23581" lon="5.59098">
        <ele>1541</ele>
        <time>2007-05-21T07:12:24Z</time>
      </trkpt>
      <trkpt lat="45.2364" lon="5.5909">
        <ele>1546</ele>
        <time>2007-05-21T07:12:48Z</time>
      </trkpt>
      <trkpt lat="45.23645" lon="5.59103">
        <ele>1548</ele>
        <time>2007-05-21T07:12:52Z</time>
      </trkpt>
      <trkpt lat="45.23638" lon="5.59122">
        <ele>1549</ele>
        <time>2007-05-21T07:12:58Z</time>
      </trkpt>
      <trkpt lat="45.23607" lon="5.59141">
        <ele>1551</ele>
        <time>2007-05-21T07:13:12Z</time>
      </trkpt>
      <trkpt lat="45.23569" lon="5.59182">
        <ele>1554</ele>
        <time>2007-05-21T07:13:31Z</time>
      </trkpt>
      <trkpt lat="45.23572" lon="5.59193">
        <ele>1556</ele>
        <time>2007-05-21T07:13:34Z</time>
      </trkpt>
      <trkpt lat="45.23586" lon="5.59196">
        <ele>1558</ele>
        <time>2007-05-21T07:13:40Z</time>
      </trkpt>
      <trkpt lat="45.23584" lon="5.59224">
        <ele>1561</ele>
        <time>2007-05-21T07:13:48Z</time>
      </trkpt>
      <trkpt lat="45.23566" lon="5.59244">
        <ele>1560</ele>
        <time>2007-05-21T07:13:57Z</time>
      </trkpt>
      <trkpt lat="45.23527" lon="5.59246">
        <ele>1563</ele>
        <time>2007-05-21T07:14:13Z</time>
      </trkpt>
      <trkpt lat="45.23507" lon="5.59265">
        <ele>1566</ele>
        <time>2007-05-21T07:14:22Z</time>
      </trkpt>
      <trkpt lat="45.23448" lon="5.59268">
        <ele>1571</ele>
        <time>2007-05-21T07:14:46Z</time>
      </trkpt>
      <trkpt lat="45.23437" lon="5.59294">
        <ele>1572</ele>
        <time>2007-05-21T07:14:55Z</time>
      </trkpt>
      <trkpt lat="45.2348" lon="5.59362">
        <ele>1576</ele>
        <time>2007-05-21T07:15:20Z</time>
      </trkpt>
      <trkpt lat="45.2353" lon="5.5941">
        <ele>1580</ele>
        <time>2007-05-21T07:15:45Z</time>
      </trkpt>
      <trkpt lat="45.23564" lon="5.59471">
        <ele>1589</ele>
        <time>2007-05-21T07:16:07Z</time>
      </trkpt>
      <trkpt lat="45.23551" lon="5.59486">
        <ele>1592</ele>
        <time>2007-05-21T07:16:13Z</time>
      </trkpt>
      <trkpt lat="45.23504" lon="5.595">
        <ele>1600</ele>
        <time>2007-05-21T07:16:33Z</time>
      </trkpt>
      <trkpt lat="45.23459" lon="5.59475">
        <ele>1594</ele>
        <time>2007-05-21T07:16:52Z</time>
      </trkpt>
      <trkpt lat="45.2341" lon="5.59531">
        <ele>1605</ele>
        <time>2007-05-21T07:17:17Z</time>
      </trkpt>
      <trkpt lat="45.23388" lon="5.59541">
        <ele>1607</ele>
        <time>2007-05-21T07:17:27Z</time>
      </trkpt>
      <trkpt lat="45.2337" lon="5.59536">
        <ele>1607</ele>
        <time>2007-05-21T07:17:34Z</time>
      </trkpt>
      <trkpt lat="45.23344" lon="5.59549">
        <ele>1613</ele>
        <time>2007-05-21T07:17:45Z</time>
      </trkpt>
      <trkpt lat="45.23277" lon="5.59503">
        <ele>1612</ele>
        <time>2007-05-21T07:18:14Z</time>
      </trkpt>
      <trkpt lat="45.2324" lon="5.59523">
        <ele>1612</ele>
        <time>2007-05-21T07:18:30Z</time>
      </trkpt>
      <trkpt lat="45.23204" lon="5.59558">
        <ele>1607</ele>
        <time>2007-05-21T07:18:48Z</time>
      </trkpt>
      <trkpt lat="45.23198" lon="5.59546">
        <ele>1608</ele>
        <time>2007-05-21T07:18:52Z</time>
      </trkpt>
      <trkpt lat="45.23167" lon="5.5953">
        <ele>1607</ele>
        <time>2007-05-21T07:19:06Z</time>
      </trkpt>
      <trkpt lat="45.23135" lon="5.59456">
        <ele>1606</ele>
        <time>2007-05-21T07:19:30Z</time>
      </trkpt>
      <trkpt lat="45.23114" lon="5.59428">
        <ele>1605</ele>
        <time>2007-05-21T07:19:41Z</time>
      </trkpt>
      <trkpt lat="45.23046" lon="5.59404">
        <ele>1607</ele>
        <time>2007-05-21T07:20:09Z</time>
      </trkpt>
      <trkpt lat="45.23031" lon="5.59385">
        <ele>1608</ele>
        <time>2007-05-21T07:20:18Z</time>
      </trkpt>
      <trkpt lat="45.23007" lon="5.59376">
        <ele>1607</ele>
        <time>2007-05-21T07:20:27Z</time>
      </trkpt>
      <trkpt lat="45.23002" lon="5.59365">
        <ele>1607</ele>
        <time>2007-05-21T07:20:31Z</time>
      </trkpt>
      <trkpt lat="45.22953" lon="5.59351">
        <ele>1610</ele>
        <time>2007-05-21T07:20:51Z</time>
      </trkpt>
      <trkpt lat="45.22888" lon="5.59386">
        <ele>1612</ele>
        <time>2007-05-21T07:21:19Z</time>
      </trkpt>
      <trkpt lat="45.22836" lon="5.59373">
        <ele>1610</ele>
        <time>2007-05-21T07:21:40Z</time>
      </trkpt>
      <trkpt lat="45.22795" lon="5.59374">
        <ele>1610</ele>
        <time>2007-05-21T07:21:57Z</time>
      </trkpt>
      <trkpt lat="45.22739" lon="5.59403">
        <ele>1607</ele>
        <time>2007-05-21T07:22:20Z</time>
      </trkpt>
      <trkpt lat="45.22714" lon="5.59401">
        <ele>1606</ele>
        <time>2007-05-21T07:22:31Z</time>
      </trkpt>
      <trkpt lat="45.22687" lon="5.59383">
        <ele>1607</ele>
        <time>2007-05-21T07:22:42Z</time>
      </trkpt>
      <trkpt lat="45.22657" lon="5.59396">
        <ele>1608</ele>
        <time>2007-05-21T07:22:55Z</time>
      </trkpt>
      <trkpt lat="45.22579" lon="5.59389">
        <ele>1610</ele>
        <time>2007-05-21T07:23:27Z</time>
      </trkpt>
      <trkpt lat="45.2254" lon="5.59395">
        <ele>1610</ele>
        <time>2007-05-21T07:23:42Z</time>
      </trkpt>
      <trkpt lat="45.22392" lon="5.5937">
        <ele>1611</ele>
        <time>2007-05-21T07:24:42Z</time>
      </trkpt>
      <trkpt lat="45.2235" lon="5.59379">
        <ele>1615</ele>
        <time>2007-05-21T07:24:59Z</time>
      </trkpt>
      <trkpt lat="45.22302" lon="5.5936">
        <ele>1616</ele>
        <time>2007-05-21T07:25:19Z</time>
      </trkpt>
      <trkpt lat="45.22271" lon="5.59336">
        <ele>1617</ele>
        <time>2007-05-21T07:25:33Z</time>
      </trkpt>
      <trkpt lat="45.22186" lon="5.59232">
        <ele>1603</ele>
        <time>2007-05-21T07:26:18Z</time>
      </trkpt>
      <trkpt lat="45.22105" lon="5.59248">
        <ele>1601</ele>
        <time>2007-05-21T07:26:51Z</time>
      </trkpt>
      <trkpt lat="45.22061" lon="5.59239">
        <ele>1600</ele>
        <time>2007-05-21T07:27:08Z</time>
      </trkpt>
      <trkpt lat="45.22004" lon="5.59257">
        <ele>1597</ele>
        <time>2007-05-21T07:27:32Z</time>
      </trkpt>
      <trkpt lat="45.21945" lon="5.59254">
        <ele>1596</ele>
        <time>2007-05-21T07:27:55Z</time>
      </trkpt>
      <trkpt lat="45.21923" lon="5.59264">
        <ele>1595</ele>
        <time>2007-05-21T07:28:04Z</time>
      </trkpt>
      <trkpt lat="45.21832" lon="5.59268">
        <ele>1597</ele>
        <time>2007-05-21T07:28:41Z</time>
      </trkpt>
      <trkpt lat="45.21813" lon="5.59281">
        <ele>1596</ele>
        <time>2007-05-21T07:28:49Z</time>
      </trkpt>
      <trkpt lat="45.21787" lon="5.59347">
        <ele>1588</ele>
        <time>2007-05-21T07:29:11Z</time>
      </trkpt>
      <trkpt lat="45.21746" lon="5.59416">
        <ele>1582</ele>
        <time>2007-05-21T07:29:36Z</time>
      </trkpt>
      <trkpt lat="45.21711" lon="5.5943">
        <ele>1580</ele>
        <time>2007-05-21T07:29:51Z</time>
      </trkpt>
      <trkpt lat="45.21674" lon="5.59403">
        <ele>1587</ele>
        <time>2007-05-21T07:30:08Z</time>
      </trkpt>
      <trkpt lat="45.21668" lon="5.5929">
        <ele>1597</ele>
        <time>2007-05-21T07:30:40Z</time>
      </trkpt>
      <trkpt lat="45.21638" lon="5.59226">
        <ele>1600</ele>
        <time>2007-05-21T07:31:01Z</time>
      </trkpt>
      <trkpt lat="45.21591" lon="5.59175">
        <ele>1604</ele>
        <time>2007-05-21T07:31:25Z</time>
      </trkpt>
      <trkpt lat="45.21566" lon="5.59158">
        <ele>1604</ele>
        <time>2007-05-21T07:31:36Z</time>
      </trkpt>
      <trkpt lat="45.21541" lon="5.59163">
        <ele>1607</ele>
        <time>2007-05-21T07:31:46Z</time>
      </trkpt>
      <trkpt lat="45.21513" lon="5.59154">
        <ele>1607</ele>
        <time>2007-05-21T07:31:58Z</time>
      </trkpt>
      <trkpt lat="45.21497" lon="5.59167">
        <ele>1611</ele>
        <time>2007-05-21T07:32:05Z</time>
      </trkpt>
      <trkpt lat="45.21463" lon="5.59142">
        <ele>1618</ele>
        <time>2007-05-21T07:32:20Z</time>
      </trkpt>
      <trkpt lat="45.21435" lon="5.59087">
        <ele>1622</ele>
        <time>2007-05-21T07:32:39Z</time>
      </trkpt>
      <trkpt lat="45.21311" lon="5.58999">
        <ele>1636</ele>
        <time>2007-05-21T07:33:35Z</time>
      </trkpt>
      <trkpt lat="45.21227" lon="5.59032">
        <ele>1638</ele>
        <time>2007-05-21T07:34:10Z</time>
      </trkpt>
      <trkpt lat="45.21171" lon="5.59029">
        <ele>1637</ele>
        <time>2007-05-21T07:34:33Z</time>
      </trkpt>
      <trkpt lat="45.21129" lon="5.59004">
        <ele>1635</ele>
        <time>2007-05-21T07:34:51Z</time>
      </trkpt>
      <trkpt lat="45.21116" lon="5.58984">
        <ele>1634</ele>
        <time>2007-05-21T07:34:58Z</time>
      </trkpt>
      <trkpt lat="45.21112" lon="5.58947">
        <ele>1632</ele>
        <time>2007-05-21T07:35:09Z</time>
      </trkpt>
      <trkpt lat="45.211" lon="5.58956">
        <ele>1629</ele>
        <time>2007-05-21T07:35:14Z</time>
      </trkpt>
      <trkpt lat="45.21" lon="5.58833">
        <ele>1614</ele>
        <time>2007-05-21T07:36:07Z</time>
      </trkpt>
      <trkpt lat="45.21037" lon="5.58891">
        <ele>1618</ele>
        <time>2007-05-21T07:36:29Z</time>
      </trkpt>
      <trkpt lat="45.21069" lon="5.5892">
        <ele>1623</ele>
        <time>2007-05-21T07:36:44Z</time>
      </trkpt>
      <trkpt lat="45.21096" lon="5.58958">
        <ele>1631</ele>
        <time>2007-05-21T07:37:00Z</time>
      </trkpt>
      <trkpt lat="45.21059" lon="5.59033">
        <ele>1625</ele>
        <time>2007-05-21T07:37:25Z</time>
      </trkpt>
      <trkpt lat="45.21016" lon="5.59066">
        <ele>1624</ele>
        <time>2007-05-21T07:37:45Z</time>
      </trkpt>
      <trkpt lat="45.20995" lon="5.59112">
        <ele>1624</ele>
        <time>2007-05-21T07:38:01Z</time>
      </trkpt>
      <trkpt lat="45.20991" lon="5.59167">
        <ele>1625</ele>
        <time>2007-05-21T07:38:16Z</time>
      </trkpt>
      <trkpt lat="45.20945" lon="5.59179">
        <ele>1626</ele>
        <time>2007-05-21T07:38:35Z</time>
      </trkpt>
      <trkpt lat="45.20901" lon="5.5913">
        <ele>1624</ele>
        <time>2007-05-21T07:38:57Z</time>
      </trkpt>
      <trkpt lat="45.20829" lon="5.5911">
        <ele>1622</ele>
        <time>2007-05-21T07:39:27Z</time>
      </trkpt>
      <trkpt lat="45.20739" lon="5.59158">
        <ele>1620</ele>
        <time>2007-05-21T07:40:05Z</time>
      </trkpt>
      <trkpt lat="45.20696" lon="5.59218">
        <ele>1619</ele>
        <time>2007-05-21T07:40:29Z</time>
      </trkpt>
      <trkpt lat="45.20608" lon="5.59219">
        <ele>1626</ele>
        <time>2007-05-21T07:41:05Z</time>
      </trkpt>
      <trkpt lat="45.2048" lon="5.59318">
        <ele>1629</ele>
        <time>2007-05-21T07:42:03Z</time>
      </trkpt>
      <trkpt lat="45.20385" lon="5.59305">
        <ele>1635</ele>
        <time>2007-05-21T07:42:41Z</time>
      </trkpt>
      <trkpt lat="45.20199" lon="5.59243">
        <ele>1639</ele>
        <time>2007-05-21T07:43:57Z</time>
      </trkpt>
      <trkpt lat="45.20065" lon="5.5922">
        <ele>1639</ele>
        <time>2007-05-21T07:44:52Z</time>
      </trkpt>
      <trkpt lat="45.19986" lon="5.59193">
        <ele>1640</ele>
        <time>2007-05-21T07:45:24Z</time>
      </trkpt>
      <trkpt lat="45.19879" lon="5.59182">
        <ele>1639</ele>
        <time>2007-05-21T07:46:07Z</time>
      </trkpt>
      <trkpt lat="45.19834" lon="5.59193">
        <ele>1640</ele>
        <time>2007-05-21T07:46:25Z</time>
      </trkpt>
      <trkpt lat="45.19812" lon="5.59184">
        <ele>1640</ele>
        <time>2007-05-21T07:46:34Z</time>
      </trkpt>
      <trkpt lat="45.19782" lon="5.59197">
        <ele>1641</ele>
        <time>2007-05-21T07:46:47Z</time>
      </trkpt>
      <trkpt lat="45.19691" lon="5.59174">
        <ele>1653</ele>
        <time>2007-05-21T07:47:24Z</time>
      </trkpt>
      <trkpt lat="45.19678" lon="5.59162">
        <ele>1658</ele>
        <time>2007-05-21T07:47:30Z</time>
      </trkpt>
      <trkpt lat="45.1959" lon="5.59176">
        <ele>1659</ele>
        <time>2007-05-21T07:48:06Z</time>
      </trkpt>
      <trkpt lat="45.19467" lon="5.59211">
        <ele>1660</ele>
        <time>2007-05-21T07:48:56Z</time>
      </trkpt>
      <trkpt lat="45.19431" lon="5.59238">
        <ele>1661</ele>
        <time>2007-05-21T07:49:13Z</time>
      </trkpt>
      <trkpt lat="45.19381" lon="5.59248">
        <ele>1661</ele>
        <time>2007-05-21T07:49:33Z</time>
      </trkpt>
      <trkpt lat="45.19379" lon="5.59261">
        <ele>1661</ele>
        <time>2007-05-21T07:49:36Z</time>
      </trkpt>
      <trkpt lat="45.19149" lon="5.59192">
        <ele>1668</ele>
        <time>2007-05-21T07:51:10Z</time>
      </trkpt>
      <trkpt lat="45.19107" lon="5.59169">
        <ele>1676</ele>
        <time>2007-05-21T07:51:28Z</time>
      </trkpt>
      <trkpt lat="45.1905" lon="5.59154">
        <ele>1683</ele>
        <time>2007-05-21T07:51:51Z</time>
      </trkpt>
      <trkpt lat="45.19054" lon="5.59156">
        <ele>1682</ele>
        <time>2007-05-21T07:51:54Z</time>
      </trkpt>
      <trkpt lat="45.19004" lon="5.59137">
        <ele>1690</ele>
        <time>2007-05-21T07:52:15Z</time>
      </trkpt>
      <trkpt lat="45.18885" lon="5.59144">
        <ele>1699</ele>
        <time>2007-05-21T07:53:02Z</time>
      </trkpt>
      <trkpt lat="45.18859" lon="5.59137">
        <ele>1703</ele>
        <time>2007-05-21T07:53:13Z</time>
      </trkpt>
      <trkpt lat="45.18815" lon="5.59152">
        <ele>1705</ele>
        <time>2007-05-21T07:53:31Z</time>
      </trkpt>
      <trkpt lat="45.18788" lon="5.59184">
        <ele>1706</ele>
        <time>2007-05-21T07:53:45Z</time>
      </trkpt>
      <trkpt lat="45.18746" lon="5.59201">
        <ele>1706</ele>
        <time>2007-05-21T07:54:03Z</time>
      </trkpt>
      <trkpt lat="45.18686" lon="5.59262">
        <ele>1708</ele>
        <time>2007-05-21T07:54:32Z</time>
      </trkpt>
      <trkpt lat="45.18655" lon="5.59254">
        <ele>1712</ele>
        <time>2007-05-21T07:54:45Z</time>
      </trkpt>
      <trkpt lat="45.18597" lon="5.59178">
        <ele>1710</ele>
        <time>2007-05-21T07:55:16Z</time>
      </trkpt>
      <trkpt lat="45.18566" lon="5.59148">
        <ele>1711</ele>
        <time>2007-05-21T07:55:31Z</time>
      </trkpt>
      <trkpt lat="45.18566" lon="5.59127">
        <ele>1712</ele>
        <time>2007-05-21T07:55:38Z</time>
      </trkpt>
      <trkpt lat="45.18484" lon="5.59039">
        <ele>1706</ele>
        <time>2007-05-21T07:56:19Z</time>
      </trkpt>
      <trkpt lat="45.18466" lon="5.58987">
        <ele>1703</ele>
        <time>2007-05-21T07:56:35Z</time>
      </trkpt>
      <trkpt lat="45.18384" lon="5.58904">
        <ele>1694</ele>
        <time>2007-05-21T07:57:15Z</time>
      </trkpt>
      <trkpt lat="45.18357" lon="5.58857">
        <ele>1686</ele>
        <time>2007-05-21T07:57:33Z</time>
      </trkpt>
      <trkpt lat="45.18319" lon="5.58811">
        <ele>1681</ele>
        <time>2007-05-21T07:57:53Z</time>
      </trkpt>
      <trkpt lat="45.18264" lon="5.58792">
        <ele>1679</ele>
        <time>2007-05-21T07:58:15Z</time>
      </trkpt>
      <trkpt lat="45.18227" lon="5.58752">
        <ele>1671</ele>
        <time>2007-05-21T07:58:34Z</time>
      </trkpt>
      <trkpt lat="45.18202" lon="5.58742">
        <ele>1669</ele>
        <time>2007-05-21T07:58:44Z</time>
      </trkpt>
      <trkpt lat="45.17996" lon="5.58603">
        <ele>1656</ele>
        <time>2007-05-21T08:00:16Z</time>
      </trkpt>
      <trkpt lat="45.17907" lon="5.58575">
        <ele>1663</ele>
        <time>2007-05-21T08:00:53Z</time>
      </trkpt>
      <trkpt lat="45.17868" lon="5.58573">
        <ele>1667</ele>
        <time>2007-05-21T08:01:08Z</time>
      </trkpt>
      <trkpt lat="45.17853" lon="5.58598">
        <ele>1670</ele>
        <time>2007-05-21T08:01:17Z</time>
      </trkpt>
      <trkpt lat="45.17796" lon="5.58625">
        <ele>1676</ele>
        <time>2007-05-21T08:01:42Z</time>
      </trkpt>
      <trkpt lat="45.17797" lon="5.58635">
        <ele>1675</ele>
        <time>2007-05-21T08:01:44Z</time>
      </trkpt>
      <trkpt lat="45.17695" lon="5.58651">
        <ele>1680</ele>
        <time>2007-05-21T08:02:26Z</time>
      </trkpt>
      <trkpt lat="45.17663" lon="5.58647">
        <ele>1684</ele>
        <time>2007-05-21T08:02:38Z</time>
      </trkpt>
      <trkpt lat="45.17589" lon="5.58596">
        <ele>1690</ele>
        <time>2007-05-21T08:03:12Z</time>
      </trkpt>
      <trkpt lat="45.17535" lon="5.58574">
        <ele>1690</ele>
        <time>2007-05-21T08:03:34Z</time>
      </trkpt>
      <trkpt lat="45.17515" lon="5.58552">
        <ele>1688</ele>
        <time>2007-05-21T08:03:44Z</time>
      </trkpt>
      <trkpt lat="45.17446" lon="5.58543">
        <ele>1686</ele>
        <time>2007-05-21T08:04:12Z</time>
      </trkpt>
      <trkpt lat="45.17363" lon="5.5847">
        <ele>1675</ele>
        <time>2007-05-21T08:04:51Z</time>
      </trkpt>
      <trkpt lat="45.17346" lon="5.58468">
        <ele>1673</ele>
        <time>2007-05-21T08:04:58Z</time>
      </trkpt>
      <trkpt lat="45.17315" lon="5.58445">
        <ele>1664</ele>
        <time>2007-05-21T08:05:12Z</time>
      </trkpt>
      <trkpt lat="45.17291" lon="5.584">
        <ele>1658</ele>
        <time>2007-05-21T08:05:28Z</time>
      </trkpt>
      <trkpt lat="45.17284" lon="5.58396">
        <ele>1656</ele>
        <time>2007-05-21T08:05:30Z</time>
      </trkpt>
      <trkpt lat="45.17353" lon="5.58326">
        <ele>1658</ele>
        <time>2007-05-21T08:06:05Z</time>
      </trkpt>
      <trkpt lat="45.17472" lon="5.58132">
        <ele>1633</ele>
        <time>2007-05-21T08:07:17Z</time>
      </trkpt>
      <trkpt lat="45.17522" lon="5.58079">
        <ele>1623</ele>
        <time>2007-05-21T08:07:42Z</time>
      </trkpt>
      <trkpt lat="45.17522" lon="5.58069">
        <ele>1622</ele>
        <time>2007-05-21T08:07:45Z</time>
      </trkpt>
      <trkpt lat="45.17539" lon="5.58057">
        <ele>1619</ele>
        <time>2007-05-21T08:07:52Z</time>
      </trkpt>
      <trkpt lat="45.17499" lon="5.58017">
        <ele>1613</ele>
        <time>2007-05-21T08:08:12Z</time>
      </trkpt>
      <trkpt lat="45.17526" lon="5.57978">
        <ele>1607</ele>
        <time>2007-05-21T08:08:27Z</time>
      </trkpt>
      <trkpt lat="45.17502" lon="5.57952">
        <ele>1603</ele>
        <time>2007-05-21T08:08:39Z</time>
      </trkpt>
      <trkpt lat="45.17535" lon="5.57899">
        <ele>1594</ele>
        <time>2007-05-21T08:08:59Z</time>
      </trkpt>
      <trkpt lat="45.17498" lon="5.57873">
        <ele>1587</ele>
        <time>2007-05-21T08:09:15Z</time>
      </trkpt>
      <trkpt lat="45.17547" lon="5.57797">
        <ele>1576</ele>
        <time>2007-05-21T08:09:44Z</time>
      </trkpt>
      <trkpt lat="45.17499" lon="5.57765">
        <ele>1569</ele>
        <time>2007-05-21T08:10:06Z</time>
      </trkpt>
      <trkpt lat="45.17497" lon="5.57748">
        <ele>1564</ele>
        <time>2007-05-21T08:10:11Z</time>
      </trkpt>
      <trkpt lat="45.17535" lon="5.57727">
        <ele>1557</ele>
        <time>2007-05-21T08:10:27Z</time>
      </trkpt>
      <trkpt lat="45.17456" lon="5.57627">
        <ele>1540</ele>
        <time>2007-05-21T08:11:09Z</time>
      </trkpt>
      <trkpt lat="45.17442" lon="5.5762">
        <ele>1536</ele>
        <time>2007-05-21T08:11:15Z</time>
      </trkpt>
      <trkpt lat="45.1743" lon="5.57649">
        <ele>1529</ele>
        <time>2007-05-21T08:11:25Z</time>
      </trkpt>
      <trkpt lat="45.17414" lon="5.57743">
        <ele>1514</ele>
        <time>2007-05-21T08:11:52Z</time>
      </trkpt>
      <trkpt lat="45.17399" lon="5.57773">
        <ele>1507</ele>
        <time>2007-05-21T08:12:03Z</time>
      </trkpt>
      <trkpt lat="45.17305" lon="5.57849">
        <ele>1479</ele>
        <time>2007-05-21T08:12:46Z</time>
      </trkpt>
      <trkpt lat="45.17317" lon="5.57819">
        <ele>1474</ele>
        <time>2007-05-21T08:12:55Z</time>
      </trkpt>
      <trkpt lat="45.17246" lon="5.57848">
        <ele>1471</ele>
        <time>2007-05-21T08:13:25Z</time>
      </trkpt>
      <trkpt lat="45.17163" lon="5.5784">
        <ele>1469</ele>
        <time>2007-05-21T08:13:58Z</time>
      </trkpt>
      <trkpt lat="45.17112" lon="5.57846">
        <ele>1470</ele>
        <time>2007-05-21T08:14:19Z</time>
      </trkpt>
      <trkpt lat="45.17048" lon="5.57816">
        <ele>1471</ele>
        <time>2007-05-21T08:14:46Z</time>
      </trkpt>
      <trkpt lat="45.16975" lon="5.57808">
        <ele>1473</ele>
        <time>2007-05-21T08:15:15Z</time>
      </trkpt>
      <trkpt lat="45.16936" lon="5.57819">
        <ele>1473</ele>
        <time>2007-05-21T08:15:31Z</time>
      </trkpt>
      <trkpt lat="45.16855" lon="5.57802">
        <ele>1469</ele>
        <time>2007-05-21T08:16:04Z</time>
      </trkpt>
      <trkpt lat="45.16812" lon="5.57736">
        <ele>1464</ele>
        <time>2007-05-21T08:16:29Z</time>
      </trkpt>
      <trkpt lat="45.16786" lon="5.57717">
        <ele>1463</ele>
        <time>2007-05-21T08:16:41Z</time>
      </trkpt>
      <trkpt lat="45.16712" lon="5.57694">
        <ele>1457</ele>
        <time>2007-05-21T08:17:11Z</time>
      </trkpt>
      <trkpt lat="45.16577" lon="5.57728">
        <ele>1454</ele>
        <time>2007-05-21T08:18:06Z</time>
      </trkpt>
      <trkpt lat="45.16566" lon="5.57721">
        <ele>1454</ele>
        <time>2007-05-21T08:18:11Z</time>
      </trkpt>
      <trkpt lat="45.16516" lon="5.57613">
        <ele>1443</ele>
        <time>2007-05-21T08:18:48Z</time>
      </trkpt>
      <trkpt lat="45.16572" lon="5.57634">
        <ele>1433</ele>
        <time>2007-05-21T08:19:11Z</time>
      </trkpt>
      <trkpt lat="45.16571" lon="5.57615">
        <ele>1430</ele>
        <time>2007-05-21T08:19:16Z</time>
      </trkpt>
      <trkpt lat="45.16551" lon="5.57577">
        <ele>1423</ele>
        <time>2007-05-21T08:19:30Z</time>
      </trkpt>
      <trkpt lat="45.16581" lon="5.57585">
        <ele>1418</ele>
        <time>2007-05-21T08:19:42Z</time>
      </trkpt>
      <trkpt lat="45.16593" lon="5.57598">
        <ele>1415</ele>
        <time>2007-05-21T08:19:48Z</time>
      </trkpt>
      <trkpt lat="45.16592" lon="5.57565">
        <ele>1408</ele>
        <time>2007-05-21T08:19:57Z</time>
      </trkpt>
      <trkpt lat="45.16613" lon="5.57577">
        <ele>1403</ele>
        <time>2007-05-21T08:20:07Z</time>
      </trkpt>
      <trkpt lat="45.16594" lon="5.57512">
        <ele>1395</ele>
        <time>2007-05-21T08:20:27Z</time>
      </trkpt>
      <trkpt lat="45.16612" lon="5.5752">
        <ele>1392</ele>
        <time>2007-05-21T08:20:34Z</time>
      </trkpt>
      <trkpt lat="45.16593" lon="5.57375">
        <ele>1378</ele>
        <time>2007-05-21T08:21:16Z</time>
      </trkpt>
      <trkpt lat="45.16597" lon="5.57294">
        <ele>1370</ele>
        <time>2007-05-21T08:21:39Z</time>
      </trkpt>
      <trkpt lat="45.16593" lon="5.57285">
        <ele>1370</ele>
        <time>2007-05-21T08:21:42Z</time>
      </trkpt>
      <trkpt lat="45.16613" lon="5.57195">
        <ele>1358</ele>
        <time>2007-05-21T08:22:08Z</time>
      </trkpt>
      <trkpt lat="45.16612" lon="5.57223">
        <ele>1355</ele>
        <time>2007-05-21T08:22:16Z</time>
      </trkpt>
      <trkpt lat="45.16644" lon="5.5729">
        <ele>1346</ele>
        <time>2007-05-21T08:22:39Z</time>
      </trkpt>
      <trkpt lat="45.16662" lon="5.57217">
        <ele>1338</ele>
        <time>2007-05-21T08:23:01Z</time>
      </trkpt>
      <trkpt lat="45.16656" lon="5.57144">
        <ele>1330</ele>
        <time>2007-05-21T08:23:21Z</time>
      </trkpt>
      <trkpt lat="45.1669" lon="5.57176">
        <ele>1320</ele>
        <time>2007-05-21T08:23:38Z</time>
      </trkpt>
      <trkpt lat="45.16686" lon="5.57123">
        <ele>1313</ele>
        <time>2007-05-21T08:23:53Z</time>
      </trkpt>
      <trkpt lat="45.16681" lon="5.57118">
        <ele>1313</ele>
        <time>2007-05-21T08:23:55Z</time>
      </trkpt>
      <trkpt lat="45.1669" lon="5.57008">
        <ele>1303</ele>
        <time>2007-05-21T08:24:27Z</time>
      </trkpt>
      <trkpt lat="45.16691" lon="5.57016">
        <ele>1303</ele>
        <time>2007-05-21T08:24:29Z</time>
      </trkpt>
      <trkpt lat="45.16703" lon="5.56966">
        <ele>1295</ele>
        <time>2007-05-21T08:24:44Z</time>
      </trkpt>
      <trkpt lat="45.16736" lon="5.56887">
        <ele>1285</ele>
        <time>2007-05-21T08:25:10Z</time>
      </trkpt>
      <trkpt lat="45.16756" lon="5.56861">
        <ele>1281</ele>
        <time>2007-05-21T08:25:21Z</time>
      </trkpt>
      <trkpt lat="45.16753" lon="5.56959">
        <ele>1271</ele>
        <time>2007-05-21T08:25:49Z</time>
      </trkpt>
      <trkpt lat="45.16767" lon="5.56989">
        <ele>1268</ele>
        <time>2007-05-21T08:25:59Z</time>
      </trkpt>
      <trkpt lat="45.16766" lon="5.56969">
        <ele>1265</ele>
        <time>2007-05-21T08:26:05Z</time>
      </trkpt>
      <trkpt lat="45.16788" lon="5.56888">
        <ele>1254</ele>
        <time>2007-05-21T08:26:29Z</time>
      </trkpt>
      <trkpt lat="45.16847" lon="5.56761">
        <ele>1240</ele>
        <time>2007-05-21T08:27:12Z</time>
      </trkpt>
      <trkpt lat="45.16853" lon="5.56722">
        <ele>1236</ele>
        <time>2007-05-21T08:27:24Z</time>
      </trkpt>
      <trkpt lat="45.16858" lon="5.56724">
        <ele>1235</ele>
        <time>2007-05-21T08:27:26Z</time>
      </trkpt>
      <trkpt lat="45.16844" lon="5.56894">
        <ele>1220</ele>
        <time>2007-05-21T08:28:14Z</time>
      </trkpt>
      <trkpt lat="45.16853" lon="5.56924">
        <ele>1218</ele>
        <time>2007-05-21T08:28:23Z</time>
      </trkpt>
      <trkpt lat="45.16869" lon="5.5695">
        <ele>1215</ele>
        <time>2007-05-21T08:28:33Z</time>
      </trkpt>
      <trkpt lat="45.1687" lon="5.56926">
        <ele>1208</ele>
        <time>2007-05-21T08:28:40Z</time>
      </trkpt>
      <trkpt lat="45.16882" lon="5.56934">
        <ele>1206</ele>
        <time>2007-05-21T08:28:45Z</time>
      </trkpt>
      <trkpt lat="45.16896" lon="5.56916">
        <ele>1203</ele>
        <time>2007-05-21T08:28:53Z</time>
      </trkpt>
      <trkpt lat="45.16898" lon="5.56903">
        <ele>1201</ele>
        <time>2007-05-21T08:28:57Z</time>
      </trkpt>
      <trkpt lat="45.16906" lon="5.56901">
        <ele>1200</ele>
        <time>2007-05-21T08:29:00Z</time>
      </trkpt>
      <trkpt lat="45.16929" lon="5.568">
        <ele>1192</ele>
        <time>2007-05-21T08:29:30Z</time>
      </trkpt>
      <trkpt lat="45.16928" lon="5.56749">
        <ele>1187</ele>
        <time>2007-05-21T08:29:44Z</time>
      </trkpt>
      <trkpt lat="45.16937" lon="5.56702">
        <ele>1182</ele>
        <time>2007-05-21T08:29:58Z</time>
      </trkpt>
      <trkpt lat="45.16992" lon="5.5661">
        <ele>1170</ele>
        <time>2007-05-21T08:30:32Z</time>
      </trkpt>
      <trkpt lat="45.16995" lon="5.56552">
        <ele>1164</ele>
        <time>2007-05-21T08:30:48Z</time>
      </trkpt>
      <trkpt lat="45.17012" lon="5.56526">
        <ele>1160</ele>
        <time>2007-05-21T08:30:58Z</time>
      </trkpt>
      <trkpt lat="45.1699" lon="5.56531">
        <ele>1162</ele>
        <time>2007-05-21T08:31:07Z</time>
      </trkpt>
      <trkpt lat="45.16996" lon="5.56528">
        <ele>1161</ele>
        <time>2007-05-21T08:31:09Z</time>
      </trkpt>
      <trkpt lat="45.17003" lon="5.56489">
        <ele>1157</ele>
        <time>2007-05-21T08:31:21Z</time>
      </trkpt>
      <trkpt lat="45.17034" lon="5.56441">
        <ele>1151</ele>
        <time>2007-05-21T08:31:39Z</time>
      </trkpt>
      <trkpt lat="45.17038" lon="5.56411">
        <ele>1149</ele>
        <time>2007-05-21T08:31:48Z</time>
      </trkpt>
      <trkpt lat="45.17019" lon="5.56464">
        <ele>1149</ele>
        <time>2007-05-21T08:32:05Z</time>
      </trkpt>
      <trkpt lat="45.17042" lon="5.56378">
        <ele>1153</ele>
        <time>2007-05-21T08:32:30Z</time>
      </trkpt>
      <trkpt lat="45.17057" lon="5.56166">
        <ele>1148</ele>
        <time>2007-05-21T08:33:31Z</time>
      </trkpt>
      <trkpt lat="45.17097" lon="5.56101">
        <ele>1146</ele>
        <time>2007-05-21T08:33:55Z</time>
      </trkpt>
      <trkpt lat="45.17163" lon="5.5605">
        <ele>1142</ele>
        <time>2007-05-21T08:34:25Z</time>
      </trkpt>
      <trkpt lat="45.1731" lon="5.55974">
        <ele>1131</ele>
        <time>2007-05-21T08:35:28Z</time>
      </trkpt>
      <trkpt lat="45.17325" lon="5.55986">
        <ele>1130</ele>
        <time>2007-05-21T08:35:35Z</time>
      </trkpt>
      <trkpt lat="45.1737" lon="5.56064">
        <ele>1122</ele>
        <time>2007-05-21T08:36:03Z</time>
      </trkpt>
      <trkpt lat="45.17366" lon="5.5606">
        <ele>1123</ele>
        <time>2007-05-21T08:36:05Z</time>
      </trkpt>
      <trkpt lat="45.17379" lon="5.56046">
        <ele>1122</ele>
        <time>2007-05-21T08:36:12Z</time>
      </trkpt>
      <trkpt lat="45.17381" lon="5.56017">
        <ele>1122</ele>
        <time>2007-05-21T08:36:20Z</time>
      </trkpt>
      <trkpt lat="45.17367" lon="5.55921">
        <ele>1118</ele>
        <time>2007-05-21T08:36:48Z</time>
      </trkpt>
      <trkpt lat="45.17347" lon="5.55859">
        <ele>1116</ele>
        <time>2007-05-21T08:37:07Z</time>
      </trkpt>
      <trkpt lat="45.17331" lon="5.55834">
        <ele>1114</ele>
        <time>2007-05-21T08:37:16Z</time>
      </trkpt>
      <trkpt lat="45.17346" lon="5.55829">
        <ele>1115</ele>
        <time>2007-05-21T08:37:23Z</time>
      </trkpt>
      <trkpt lat="45.17344" lon="5.55782">
        <ele>1117</ele>
        <time>2007-05-21T08:37:36Z</time>
      </trkpt>
      <trkpt lat="45.17374" lon="5.55723">
        <ele>1121</ele>
        <time>2007-05-21T08:37:57Z</time>
      </trkpt>
      <trkpt lat="45.1738" lon="5.55661">
        <ele>1115</ele>
        <time>2007-05-21T08:38:14Z</time>
      </trkpt>
      <trkpt lat="45.1739" lon="5.55631">
        <ele>1111</ele>
        <time>2007-05-21T08:38:24Z</time>
      </trkpt>
      <trkpt lat="45.17427" lon="5.55587">
        <ele>1106</ele>
        <time>2007-05-21T08:38:43Z</time>
      </trkpt>
      <trkpt lat="45.17496" lon="5.5548">
        <ele>1096</ele>
        <time>2007-05-21T08:39:24Z</time>
      </trkpt>
      <trkpt lat="45.17512" lon="5.55402">
        <ele>1093</ele>
        <time>2007-05-21T08:39:47Z</time>
      </trkpt>
      <trkpt lat="45.17503" lon="5.55324">
        <ele>1093</ele>
        <time>2007-05-21T08:40:09Z</time>
      </trkpt>
      <trkpt lat="45.17516" lon="5.55181">
        <ele>1092</ele>
        <time>2007-05-21T08:40:50Z</time>
      </trkpt>
      <trkpt lat="45.17567" lon="5.55058">
        <ele>1087</ele>
        <time>2007-05-21T08:41:30Z</time>
      </trkpt>
      <trkpt lat="45.17571" lon="5.55022">
        <ele>1085</ele>
        <time>2007-05-21T08:41:41Z</time>
      </trkpt>
      <trkpt lat="45.17557" lon="5.54985">
        <ele>1084</ele>
        <time>2007-05-21T08:41:52Z</time>
      </trkpt>
      <trkpt lat="45.17516" lon="5.54915">
        <ele>1081</ele>
        <time>2007-05-21T08:42:18Z</time>
      </trkpt>
      <trkpt lat="45.17506" lon="5.54871">
        <ele>1080</ele>
        <time>2007-05-21T08:42:31Z</time>
      </trkpt>
      <trkpt lat="45.17527" lon="5.54679">
        <ele>1074</ele>
        <time>2007-05-21T08:43:26Z</time>
      </trkpt>
      <trkpt lat="45.17625" lon="5.54454">
        <ele>1068</ele>
        <time>2007-05-21T08:44:41Z</time>
      </trkpt>
      <trkpt lat="45.17593" lon="5.54413">
        <ele>1067</ele>
        <time>2007-05-21T08:44:58Z</time>
      </trkpt>
      <trkpt lat="45.17558" lon="5.54347">
        <ele>1067</ele>
        <time>2007-05-21T08:45:22Z</time>
      </trkpt>
      <trkpt lat="45.17538" lon="5.54286">
        <ele>1066</ele>
        <time>2007-05-21T08:45:41Z</time>
      </trkpt>
      <trkpt lat="45.17476" lon="5.54233">
        <ele>1067</ele>
        <time>2007-05-21T08:46:10Z</time>
      </trkpt>
      <trkpt lat="45.175" lon="5.54198">
        <ele>1068</ele>
        <time>2007-05-21T08:46:24Z</time>
      </trkpt>
      <trkpt lat="45.17495" lon="5.54196">
        <ele>1068</ele>
        <time>2007-05-21T08:46:26Z</time>
      </trkpt>
    </trkseg>
  </trk>
</gpx>